createdAt,value
2017-07-17T00:01:01.963Z,77.06
2017-07-17T00:03:29.364Z,77.33
2017-07-17T00:05:56.761Z,77.24
2017-07-17T00:08:24.168Z,77.08
2017-07-17T00:10:51.569Z,76.96
2017-07-17T00:13:18.962Z,77.15
2017-07-17T00:15:46.367Z,77.17
2017-07-17T00:18:13.971Z,77.28
2017-07-17T00:20:41.377Z,77.59
2017-07-17T00:23:08.770Z,77.96
2017-07-17T00:25:36.159Z,78.03
2017-07-17T00:28:03.559Z,78.17
2017-07-17T00:30:30.960Z,78.12
2017-07-17T00:32:58.355Z,78.08
2017-07-17T00:35:25.752Z,77.70
2017-07-17T00:37:53.155Z,77.22
2017-07-17T00:40:20.772Z,77.08
2017-07-17T00:42:48.173Z,76.95
2017-07-17T00:45:15.573Z,76.50
2017-07-17T00:47:43.188Z,75.76
2017-07-17T00:50:10.591Z,75.59
2017-07-17T00:52:37.987Z,75.89
2017-07-17T00:55:05.389Z,75.94
2017-07-17T00:57:32.827Z,76.14
2017-07-17T01:00:00.432Z,76.42
2017-07-17T01:02:27.819Z,76.70
2017-07-17T01:04:55.227Z,77.01
2017-07-17T01:07:22.635Z,77.20
2017-07-17T01:09:50.028Z,77.30
2017-07-17T01:12:17.424Z,77.15
2017-07-17T01:14:44.824Z,77.03
2017-07-17T01:17:12.223Z,77.24
2017-07-17T01:19:39.640Z,77.36
2017-07-17T01:22:07.035Z,77.24
2017-07-17T01:24:34.434Z,77.32
2017-07-17T01:27:01.835Z,76.43
2017-07-17T01:29:29.240Z,76.20
2017-07-17T01:31:56.629Z,75.62
2017-07-17T01:34:24.027Z,75.03
2017-07-17T01:36:51.423Z,74.90
2017-07-17T01:39:18.816Z,74.97
2017-07-17T01:41:46.217Z,75.65
2017-07-17T01:44:13.616Z,76.20
2017-07-17T01:46:41.455Z,76.10
2017-07-17T01:49:08.843Z,75.47
2017-07-17T01:51:36.245Z,75.23
2017-07-17T01:54:03.635Z,75.65
2017-07-17T01:56:31.045Z,75.72
2017-07-17T01:58:58.440Z,75.56
2017-07-17T02:01:25.844Z,75.66
2017-07-17T02:03:53.235Z,75.04
2017-07-17T02:06:20.629Z,75.19
2017-07-17T02:08:48.239Z,75.62
2017-07-17T02:11:15.647Z,75.99
2017-07-17T02:13:43.051Z,76.27
2017-07-17T02:16:10.463Z,76.51
2017-07-17T02:18:37.861Z,76.78
2017-07-17T02:21:05.259Z,77.47
2017-07-17T02:23:32.658Z,77.92
2017-07-17T02:26:00.059Z,78.51
2017-07-17T02:28:27.456Z,78.35
2017-07-17T02:30:54.851Z,78.44
2017-07-17T02:33:22.256Z,78.73
2017-07-17T02:35:49.648Z,78.67
2017-07-17T02:38:17.046Z,78.75
2017-07-17T02:40:44.446Z,79.15
2017-07-17T02:43:11.830Z,79.39
2017-07-17T02:45:39.235Z,79.30
2017-07-17T02:48:06.636Z,79.11
2017-07-17T02:50:34.035Z,79.49
2017-07-17T02:53:01.448Z,79.57
2017-07-17T02:55:28.845Z,79.40
2017-07-17T02:57:56.248Z,79.27
2017-07-17T03:00:23.887Z,79.51
2017-07-17T03:02:51.252Z,79.37
2017-07-17T03:05:18.646Z,78.88
2017-07-17T03:07:46.053Z,78.96
2017-07-17T03:10:13.444Z,78.17
2017-07-17T03:12:40.843Z,77.89
2017-07-17T03:15:08.240Z,77.89
2017-07-17T03:17:35.653Z,78.00
2017-07-17T03:20:03.048Z,78.49
2017-07-17T03:22:30.455Z,79.21
2017-07-17T03:24:57.852Z,79.73
2017-07-17T03:27:25.260Z,79.18
2017-07-17T03:29:52.651Z,78.87
2017-07-17T03:32:20.052Z,78.68
2017-07-17T03:34:47.449Z,78.70
2017-07-17T03:37:14.851Z,79.12
2017-07-17T03:39:42.248Z,78.54
2017-07-17T03:42:09.651Z,78.51
2017-07-17T03:44:37.035Z,78.47
2017-07-17T03:47:04.461Z,78.30
2017-07-17T03:49:31.849Z,78.02
2017-07-17T03:51:59.243Z,77.85
2017-07-17T03:54:26.859Z,78.41
2017-07-17T03:56:54.251Z,78.43
2017-07-17T03:59:21.655Z,78.13
2017-07-17T04:01:49.060Z,78.22
2017-07-17T04:04:16.459Z,78.54
2017-07-17T04:06:43.863Z,78.58
2017-07-17T04:09:11.251Z,78.73
2017-07-17T04:11:38.655Z,78.99
2017-07-17T04:14:06.056Z,78.42
2017-07-17T04:16:33.455Z,78.43
2017-07-17T04:19:00.855Z,78.41
2017-07-17T04:21:28.254Z,78.69
2017-07-17T04:23:55.871Z,78.81
2017-07-17T04:26:23.276Z,79.11
2017-07-17T04:28:50.676Z,79.32
2017-07-17T04:31:18.076Z,79.47
2017-07-17T04:33:45.480Z,79.57
2017-07-17T04:36:12.887Z,79.30
2017-07-17T04:38:40.492Z,79.60
2017-07-17T04:41:07.893Z,79.48
2017-07-17T04:43:35.293Z,79.18
2017-07-17T04:46:02.682Z,79.44
2017-07-17T04:48:30.085Z,79.64
2017-07-17T04:50:57.480Z,79.30
2017-07-17T04:53:24.876Z,79.37
2017-07-17T04:55:52.272Z,79.62
2017-07-17T04:58:19.684Z,79.12
2017-07-17T05:00:47.119Z,78.72
2017-07-17T05:03:14.520Z,79.24
2017-07-17T05:05:41.907Z,79.39
2017-07-17T05:08:09.304Z,79.54
2017-07-17T05:10:36.703Z,79.70
2017-07-17T05:13:04.108Z,80.24
2017-07-17T05:15:31.511Z,80.54
2017-07-17T05:17:58.904Z,80.81
2017-07-17T05:20:26.327Z,81.19
2017-07-17T05:22:53.708Z,81.35
2017-07-17T05:25:21.107Z,81.14
2017-07-17T05:27:48.500Z,81.31
2017-07-17T05:30:15.956Z,81.42
2017-07-17T05:32:48.173Z,80.96
2017-07-17T05:35:15.595Z,80.86
2017-07-17T05:37:42.988Z,81.32
2017-07-17T05:40:10.728Z,80.10
2017-07-17T05:42:38.246Z,80.49
2017-07-17T05:45:05.652Z,80.30
2017-07-17T05:47:33.049Z,80.15
2017-07-17T05:50:00.438Z,79.73
2017-07-17T05:52:27.832Z,78.69
2017-07-17T05:54:55.236Z,78.40
2017-07-17T05:57:22.625Z,77.27
2017-07-17T05:59:50.028Z,76.51
2017-07-17T06:02:17.432Z,77.14
2017-07-17T06:04:44.841Z,77.85
2017-07-17T06:07:12.240Z,76.94
2017-07-17T06:09:39.704Z,76.68
2017-07-17T06:12:07.095Z,76.41
2017-07-17T06:14:34.515Z,77.09
2017-07-17T06:17:01.908Z,77.23
2017-07-17T06:19:29.373Z,76.30
2017-07-17T06:21:56.740Z,77.58
2017-07-17T06:24:24.137Z,77.71
2017-07-17T06:26:51.540Z,76.70
2017-07-17T06:29:18.936Z,76.60
2017-07-17T06:31:46.548Z,75.62
2017-07-17T06:34:13.938Z,75.97
2017-07-17T06:36:41.784Z,75.03
2017-07-17T06:39:09.175Z,74.86
2017-07-17T06:41:36.575Z,74.80
2017-07-17T06:44:03.967Z,73.74
2017-07-17T06:46:31.381Z,72.48
2017-07-17T06:48:58.768Z,74.02
2017-07-17T06:51:26.171Z,73.26
2017-07-17T06:53:53.555Z,73.43
2017-07-17T06:56:20.956Z,71.56
2017-07-17T06:58:48.352Z,73.49
2017-07-17T07:01:15.750Z,72.92
2017-07-17T07:03:43.147Z,71.43
2017-07-17T07:06:10.542Z,71.02
2017-07-17T07:08:37.935Z,70.82
2017-07-17T07:11:05.340Z,70.76
2017-07-17T07:13:32.732Z,69.89
2017-07-17T07:16:00.334Z,69.32
2017-07-17T07:18:27.724Z,68.47
2017-07-17T07:20:55.133Z,68.33
2017-07-17T07:23:22.519Z,69.21
2017-07-17T07:25:49.924Z,67.92
2017-07-17T07:28:17.316Z,67.30
2017-07-17T07:30:44.719Z,66.55
2017-07-17T07:33:12.122Z,66.70
2017-07-17T07:35:39.537Z,65.32
2017-07-17T07:38:07.146Z,64.77
2017-07-17T07:40:34.555Z,66.32
2017-07-17T07:43:01.951Z,65.41
2017-07-17T07:45:29.335Z,65.74
2017-07-17T07:47:56.754Z,67.46
2017-07-17T07:50:24.131Z,65.79
2017-07-17T07:52:51.526Z,67.16
2017-07-17T07:55:18.916Z,66.65
2017-07-17T07:57:46.311Z,66.56
2017-07-17T08:00:13.703Z,66.02
2017-07-17T08:02:41.091Z,64.64
2017-07-17T08:05:08.488Z,64.07
2017-07-17T08:07:35.892Z,64.38
2017-07-17T08:10:03.496Z,64.98
2017-07-17T08:12:30.910Z,66.19
2017-07-17T08:14:58.310Z,66.08
2017-07-17T08:17:25.709Z,64.79
2017-07-17T08:19:53.096Z,61.68
2017-07-17T08:22:20.499Z,64.55
2017-07-17T08:24:47.892Z,61.68
2017-07-17T08:27:15.283Z,61.41
2017-07-17T08:29:42.683Z,61.94
2017-07-17T08:32:10.076Z,61.00
2017-07-17T08:34:37.472Z,60.33
2017-07-17T08:37:04.868Z,61.96
2017-07-17T08:39:32.260Z,61.08
2017-07-17T08:41:59.661Z,61.26
2017-07-17T08:44:27.060Z,62.18
2017-07-17T08:46:54.670Z,61.44
2017-07-17T08:49:22.056Z,60.97
2017-07-17T08:51:49.456Z,61.21
2017-07-17T08:54:16.859Z,62.89
2017-07-17T08:56:44.246Z,63.30
2017-07-17T08:59:11.668Z,63.45
2017-07-17T09:01:39.066Z,62.81
2017-07-17T09:04:06.467Z,59.90
2017-07-17T09:06:33.867Z,59.97
2017-07-17T09:09:01.301Z,62.38
2017-07-17T09:11:28.669Z,60.52
2017-07-17T09:13:56.059Z,59.76
2017-07-17T09:16:23.460Z,60.86
2017-07-17T09:18:50.853Z,61.11
2017-07-17T09:21:18.254Z,60.71
2017-07-17T09:23:45.643Z,60.25
2017-07-17T09:26:13.048Z,59.89
2017-07-17T09:28:40.438Z,60.50
2017-07-17T09:31:07.858Z,61.42
2017-07-17T09:33:35.244Z,60.07
2017-07-17T09:36:02.643Z,58.91
2017-07-17T09:38:30.039Z,59.04
2017-07-17T09:40:57.445Z,59.07
2017-07-17T09:43:24.832Z,57.52
2017-07-17T09:45:52.236Z,57.69
2017-07-17T09:48:19.624Z,58.13
2017-07-17T09:50:47.027Z,54.68
2017-07-17T09:53:14.411Z,55.59
2017-07-17T09:55:42.108Z,52.85
2017-07-17T09:58:09.504Z,55.49
2017-07-17T10:00:36.884Z,54.11
2017-07-17T10:03:04.310Z,55.12
2017-07-17T10:05:31.693Z,53.13
2017-07-17T10:07:59.104Z,54.18
2017-07-17T10:10:26.499Z,55.37
2017-07-17T10:12:53.901Z,56.71
2017-07-17T10:15:21.287Z,57.54
2017-07-17T10:17:48.687Z,56.72
2017-07-17T10:20:16.092Z,57.33
2017-07-17T10:22:43.498Z,56.26
2017-07-17T10:25:10.936Z,56.95
2017-07-17T10:27:38.319Z,51.46
2017-07-17T10:30:05.723Z,51.91
2017-07-17T10:32:33.129Z,52.27
2017-07-17T10:35:00.524Z,51.55
2017-07-17T10:37:27.928Z,48.11
2017-07-17T10:39:55.328Z,46.33
2017-07-17T10:42:22.719Z,50.42
2017-07-17T10:44:50.107Z,50.89
2017-07-17T10:47:17.507Z,49.82
2017-07-17T10:49:44.900Z,50.88
2017-07-17T10:52:12.291Z,52.03
2017-07-17T10:54:39.683Z,48.77
2017-07-17T10:57:07.083Z,47.84
2017-07-17T10:59:34.471Z,47.48
2017-07-17T11:02:01.873Z,48.29
2017-07-17T11:04:29.259Z,46.98
2017-07-17T11:06:56.652Z,46.16
2017-07-17T11:09:24.046Z,46.96
2017-07-17T11:11:51.465Z,47.86
2017-07-17T11:14:18.855Z,47.31
2017-07-17T11:16:46.235Z,47.71
2017-07-17T11:19:13.635Z,46.68
2017-07-17T11:21:41.258Z,49.23
2017-07-17T11:24:08.659Z,47.93
2017-07-17T11:26:36.057Z,49.29
2017-07-17T11:29:03.451Z,48.28
2017-07-17T11:31:30.846Z,47.21
2017-07-17T11:33:58.236Z,45.90
2017-07-17T11:36:25.636Z,46.93
2017-07-17T11:38:53.037Z,45.80
2017-07-17T11:41:20.420Z,47.59
2017-07-17T11:43:47.806Z,48.55
2017-07-17T11:56:26.280Z,43.61
2017-07-17T11:58:53.665Z,45.86
2017-07-17T12:01:21.072Z,45.46
2017-07-17T12:03:48.467Z,45.75
2017-07-17T12:06:16.071Z,44.64
2017-07-17T12:08:43.472Z,45.39
2017-07-17T12:11:10.855Z,45.21
2017-07-17T12:13:38.248Z,46.56
2017-07-17T12:16:05.643Z,45.29
2017-07-17T12:18:33.037Z,44.66
2017-07-17T12:21:00.419Z,46.90
2017-07-17T12:23:27.811Z,46.51
2017-07-17T12:25:55.198Z,46.09
2017-07-17T12:28:22.607Z,45.47
2017-07-17T12:30:49.991Z,46.13
2017-07-17T12:33:17.378Z,47.03
2017-07-17T12:35:44.770Z,46.80
2017-07-17T12:38:12.162Z,45.94
2017-07-17T12:40:39.556Z,45.74
2017-07-17T12:43:06.952Z,47.32
2017-07-17T12:45:34.342Z,46.71
2017-07-17T12:48:01.732Z,46.21
2017-07-17T12:50:29.123Z,46.61
2017-07-17T12:52:56.513Z,46.78
2017-07-17T12:55:23.910Z,46.45
2017-07-17T12:57:51.288Z,47.04
2017-07-17T13:00:18.688Z,46.00
2017-07-17T13:02:46.078Z,45.62
2017-07-17T13:05:13.471Z,46.26
2017-07-17T13:07:40.855Z,44.96
2017-07-17T13:10:08.465Z,45.57
2017-07-17T13:12:35.846Z,46.56
2017-07-17T13:15:03.247Z,46.17
2017-07-17T13:17:30.634Z,45.35
2017-07-17T13:19:58.814Z,44.90
2017-07-17T13:22:26.194Z,44.57
2017-07-17T13:24:53.586Z,45.08
2017-07-17T13:27:20.971Z,46.04
2017-07-17T13:29:48.371Z,46.84
2017-07-17T13:32:15.770Z,45.96
2017-07-17T13:34:43.168Z,46.12
2017-07-17T13:37:10.552Z,44.65
2017-07-17T13:39:37.939Z,44.63
2017-07-17T13:42:05.331Z,45.22
2017-07-17T13:44:32.752Z,44.88
2017-07-17T13:47:00.138Z,46.32
2017-07-17T13:49:27.537Z,47.14
2017-07-17T13:51:54.924Z,46.65
2017-07-17T13:54:22.325Z,46.61
2017-07-17T13:56:49.714Z,46.17
2017-07-17T13:59:17.115Z,45.31
2017-07-17T14:01:44.774Z,45.68
2017-07-17T14:04:12.166Z,46.19
2017-07-17T14:06:39.550Z,46.76
2017-07-17T14:09:06.939Z,45.67
2017-07-17T14:11:34.330Z,45.11
2017-07-17T14:14:01.752Z,46.15
2017-07-17T14:16:29.146Z,45.24
2017-07-17T14:18:56.538Z,45.51
2017-07-17T14:21:23.931Z,46.62
2017-07-17T14:23:51.318Z,44.57
2017-07-17T14:26:18.728Z,44.17
2017-07-17T14:28:46.119Z,45.16
2017-07-17T14:31:13.501Z,45.15
2017-07-17T14:33:41.738Z,45.96
2017-07-17T14:36:09.131Z,44.78
2017-07-17T14:38:36.515Z,43.86
2017-07-17T14:41:03.904Z,44.71
2017-07-17T14:43:31.304Z,44.67
2017-07-17T14:45:58.720Z,45.97
2017-07-17T14:48:26.102Z,44.88
2017-07-17T14:50:53.507Z,44.74
2017-07-17T14:53:20.895Z,45.27
2017-07-17T14:55:48.308Z,44.54
2017-07-17T14:58:15.705Z,44.74
2017-07-17T15:00:43.110Z,43.95
2017-07-17T15:03:10.499Z,43.61
2017-07-17T15:05:38.125Z,44.56
2017-07-17T15:08:05.564Z,45.11
2017-07-17T15:10:32.955Z,45.25
2017-07-17T15:13:00.348Z,44.54
2017-07-17T15:15:27.730Z,45.40
2017-07-17T15:17:55.128Z,44.93
2017-07-17T15:20:22.511Z,45.62
2017-07-17T15:22:49.911Z,45.60
2017-07-17T15:25:17.300Z,45.54
2017-07-17T15:27:44.698Z,46.32
2017-07-17T15:30:12.077Z,47.33
2017-07-17T15:32:39.476Z,46.32
2017-07-17T15:35:06.863Z,45.94
2017-07-17T15:37:34.268Z,45.50
2017-07-17T15:40:01.645Z,45.08
2017-07-17T15:42:29.038Z,45.61
2017-07-17T15:44:56.427Z,45.73
2017-07-17T15:47:23.832Z,46.27
2017-07-17T15:49:51.222Z,45.49
2017-07-17T15:52:18.627Z,46.10
2017-07-17T15:54:46.003Z,45.74
2017-07-17T15:57:13.399Z,46.70
2017-07-17T15:59:40.788Z,46.40
2017-07-17T16:02:08.205Z,45.21
2017-07-17T16:04:35.583Z,45.55
2017-07-17T16:07:02.982Z,46.24
2017-07-17T16:09:30.374Z,47.18
2017-07-17T16:11:57.784Z,47.24
2017-07-17T16:14:25.173Z,47.78
2017-07-17T16:16:52.558Z,47.46
2017-07-17T16:19:19.951Z,47.58
2017-07-17T16:21:47.389Z,48.57
2017-07-17T16:24:15.005Z,48.28
2017-07-17T16:26:43.198Z,50.15
2017-07-17T16:29:10.600Z,48.38
2017-07-17T16:31:37.990Z,48.73
2017-07-17T16:34:05.384Z,48.39
2017-07-17T16:36:32.767Z,48.22
2017-07-17T16:39:00.185Z,48.34
2017-07-17T16:41:27.575Z,49.03
2017-07-17T16:43:54.966Z,48.76
2017-07-17T16:46:22.363Z,49.25
2017-07-17T16:48:49.759Z,48.68
2017-07-17T16:51:17.137Z,48.25
2017-07-17T16:53:44.534Z,48.52
2017-07-17T16:56:11.916Z,49.03
2017-07-17T16:58:39.311Z,48.60
2017-07-17T17:01:06.694Z,48.31
2017-07-17T17:03:34.086Z,48.89
2017-07-17T17:06:01.480Z,48.83
2017-07-17T17:08:28.875Z,49.34
2017-07-17T17:10:56.263Z,48.36
2017-07-17T17:13:23.650Z,49.37
2017-07-17T17:15:51.046Z,49.21
2017-07-17T17:18:18.501Z,49.29
2017-07-17T17:20:45.890Z,49.55
2017-07-17T17:23:13.283Z,49.70
2017-07-17T17:25:40.675Z,49.28
2017-07-17T17:28:08.092Z,49.62
2017-07-17T17:30:35.475Z,49.77
2017-07-17T17:33:02.863Z,49.36
2017-07-17T17:35:30.259Z,49.92
2017-07-17T17:37:57.651Z,49.45
2017-07-17T17:40:25.039Z,49.49
2017-07-17T17:42:52.429Z,49.72
2017-07-17T17:45:19.815Z,48.76
2017-07-17T17:47:47.206Z,48.75
2017-07-17T17:50:14.604Z,48.94
2017-07-17T17:52:41.979Z,48.75
2017-07-17T17:55:09.535Z,49.48
2017-07-17T17:57:36.918Z,49.17
2017-07-17T18:00:05.279Z,49.21
2017-07-17T18:02:32.667Z,50.39
2017-07-17T18:05:00.059Z,49.31
2017-07-17T18:07:27.443Z,49.90
2017-07-17T18:09:54.839Z,50.18
2017-07-17T18:12:22.228Z,50.38
2017-07-17T18:14:49.619Z,49.97
2017-07-17T18:17:17.003Z,50.04
2017-07-17T18:19:44.399Z,50.33
2017-07-17T18:22:11.793Z,51.10
2017-07-17T18:24:39.192Z,51.26
2017-07-17T18:27:06.591Z,51.32
2017-07-17T18:29:33.995Z,51.57
2017-07-17T18:32:01.368Z,51.69
2017-07-17T18:34:28.759Z,51.65
2017-07-17T18:36:56.155Z,51.25
2017-07-17T18:39:23.563Z,51.32
2017-07-17T18:41:50.961Z,50.80
2017-07-17T18:44:18.352Z,50.94
2017-07-17T18:46:45.955Z,50.80
2017-07-17T18:49:13.335Z,51.70
2017-07-17T18:51:40.729Z,52.02
2017-07-17T18:54:08.125Z,51.93
2017-07-17T18:56:35.523Z,51.73
2017-07-17T18:59:02.915Z,51.92
2017-07-17T19:01:30.317Z,51.82
2017-07-17T19:03:57.703Z,52.26
2017-07-17T19:06:25.097Z,52.08
2017-07-17T19:08:52.516Z,51.83
2017-07-17T19:11:19.893Z,52.00
2017-07-17T19:13:47.452Z,52.95
2017-07-17T19:16:14.847Z,53.61
2017-07-17T19:18:42.236Z,53.71
2017-07-17T19:21:09.639Z,53.97
2017-07-17T19:23:37.033Z,54.04
2017-07-17T19:26:04.424Z,54.19
2017-07-17T19:28:31.828Z,54.33
2017-07-17T19:30:59.241Z,54.23
2017-07-17T19:33:26.616Z,54.26
2017-07-17T19:35:54.017Z,54.29
2017-07-17T19:38:21.623Z,54.24
2017-07-17T19:40:49.006Z,54.25
2017-07-17T19:43:16.390Z,54.79
2017-07-17T19:45:43.786Z,55.67
2017-07-17T19:48:11.178Z,56.23
2017-07-17T19:50:38.568Z,56.47
2017-07-17T19:53:06.174Z,56.58
2017-07-17T19:55:33.571Z,56.78
2017-07-17T19:58:00.962Z,56.55
2017-07-17T20:00:28.374Z,56.22
2017-07-17T20:02:55.751Z,56.03
2017-07-17T20:05:23.143Z,55.92
2017-07-17T20:07:50.539Z,55.98
2017-07-17T20:10:18.096Z,56.13
2017-07-17T20:12:45.611Z,56.45
2017-07-17T20:15:13.007Z,56.84
2017-07-17T20:17:40.395Z,57.13
2017-07-17T20:20:08.095Z,57.42
2017-07-17T20:22:35.495Z,57.26
2017-07-17T20:25:02.884Z,57.38
2017-07-17T20:27:30.286Z,57.46
2017-07-17T20:29:57.691Z,57.53
2017-07-17T20:32:25.103Z,57.85
2017-07-17T20:34:52.469Z,58.41
2017-07-17T20:37:19.863Z,58.69
2017-07-17T20:39:47.246Z,59.11
2017-07-17T20:42:14.641Z,59.54
2017-07-17T20:44:42.064Z,59.64
2017-07-17T20:47:09.450Z,60.31
2017-07-17T20:49:36.858Z,60.23
2017-07-17T20:52:04.258Z,60.28
2017-07-17T20:54:31.667Z,60.72
2017-07-17T20:56:59.057Z,61.16
2017-07-17T20:59:26.449Z,61.16
2017-07-17T21:01:53.836Z,60.83
2017-07-17T21:04:21.352Z,61.00
2017-07-17T21:06:48.753Z,61.13
2017-07-17T21:09:16.150Z,61.14
2017-07-17T21:11:43.552Z,61.02
2017-07-17T21:14:10.936Z,61.07
2017-07-17T21:16:38.353Z,61.60
2017-07-17T21:19:05.744Z,62.24
2017-07-17T21:21:33.132Z,62.32
2017-07-17T21:24:00.546Z,61.85
2017-07-17T21:26:28.192Z,61.26
2017-07-17T21:28:55.587Z,60.77
2017-07-17T21:31:24.254Z,60.83
2017-07-17T21:33:51.653Z,60.68
2017-07-17T21:36:19.347Z,60.59
2017-07-17T21:38:46.774Z,60.43
2017-07-17T21:41:14.146Z,60.25
2017-07-17T21:43:41.552Z,59.98
2017-07-17T21:46:08.941Z,59.53
2017-07-17T21:48:36.339Z,59.52
2017-07-17T21:51:03.718Z,59.38
2017-07-17T21:53:31.120Z,59.18
2017-07-17T21:55:58.498Z,59.38
2017-07-17T21:58:25.883Z,59.02
2017-07-17T22:00:53.264Z,58.93
2017-07-17T22:03:20.667Z,58.56
2017-07-17T22:05:48.043Z,58.18
2017-07-17T22:08:15.444Z,58.14
2017-07-17T22:10:42.830Z,58.01
2017-07-17T22:13:10.231Z,58.10
2017-07-17T22:15:37.623Z,57.90
2017-07-17T22:18:05.012Z,58.05
2017-07-17T22:20:32.405Z,58.04
2017-07-17T22:22:59.797Z,58.05
2017-07-17T22:25:27.736Z,58.05
2017-07-17T22:27:55.123Z,58.17
2017-07-17T22:30:22.527Z,58.54
2017-07-17T22:32:49.919Z,58.16
2017-07-17T22:35:17.316Z,58.18
2017-07-17T22:37:44.707Z,57.90
2017-07-17T22:40:12.099Z,57.96
2017-07-17T22:42:39.487Z,57.69
2017-07-17T22:45:06.875Z,57.96
2017-07-17T22:47:34.262Z,58.03
2017-07-17T22:50:01.665Z,57.96
2017-07-17T22:52:29.056Z,58.12
2017-07-17T22:54:56.450Z,58.21
2017-07-17T22:57:23.831Z,58.49
2017-07-17T22:59:51.228Z,58.47
2017-07-17T23:02:18.614Z,58.82
2017-07-17T23:04:46.002Z,58.82
2017-07-17T23:07:13.711Z,58.74
2017-07-17T23:09:41.109Z,59.04
2017-07-17T23:12:08.512Z,59.00
2017-07-17T23:14:35.906Z,58.97
2017-07-17T23:17:03.288Z,59.27
2017-07-17T23:19:30.681Z,59.17
2017-07-17T23:21:58.063Z,58.63
2017-07-17T23:24:25.451Z,59.09
2017-07-17T23:26:52.842Z,59.74
2017-07-17T23:29:20.241Z,60.00
2017-07-17T23:31:47.631Z,60.35
2017-07-17T23:34:15.021Z,60.52
2017-07-17T23:36:42.441Z,60.63
2017-07-17T23:39:09.820Z,59.83
2017-07-17T23:41:37.211Z,59.45
2017-07-17T23:44:04.623Z,59.64
2017-07-17T23:46:32.012Z,59.97
2017-07-17T23:48:59.394Z,59.56
2017-07-17T23:51:26.792Z,59.77
2017-07-17T23:53:54.186Z,59.88
2017-07-17T23:56:21.576Z,60.07
2017-07-17T23:58:48.958Z,59.70
